Time;durP1;ratioP1;P1;durP2;ratioP2;P2;SDS_P1;SDS_P2;PMS_P1;PMS_P2;Temp;Humidity;BMP_temperature;BMP_pressure;BME280_temperature;BME280_humidity;BME280_pressure;Samples;Min_cycle;Max_cycle;Signal;HPM_P1;HPM_P2
2021/01/18 00:02:11;;;;;;;49.05;21.73;;;5.10;99.90;;;;;;5048379;28;20076;-82
2021/01/18 00:04:38;;;;;;;47.97;22.40;;;5.10;99.90;;;;;;5052176;28;20045;-81
2021/01/18 00:07:05;;;;;;;47.30;22.27;;;5.00;99.90;;;;;;5056585;28;20150;-82
2021/01/18 00:09:33;;;;;;;40.33;19.48;;;5.10;99.90;;;;;;5054083;28;20042;-82
2021/01/18 00:11:59;;;;;;;42.08;20.52;;;5.00;99.90;;;;;;5054335;28;20052;-82
2021/01/18 00:14:25;;;;;;;52.97;21.70;;;5.00;99.90;;;;;;5061427;28;20052;-81
2021/01/18 00:16:52;;;;;;;48.92;20.23;;;5.00;99.90;;;;;;5058730;28;20100;-82
2021/01/18 00:19:18;;;;;;;48.65;21.33;;;5.00;99.90;;;;;;5045816;28;20049;-83
2021/01/18 00:21:45;;;;;;;43.35;20.83;;;5.00;99.90;;;;;;5062390;28;20053;-84
2021/01/18 00:24:12;;;;;;;48.30;23.58;;;5.00;99.90;;;;;;5065153;28;20112;-83
2021/01/18 00:26:39;;;;;;;49.88;22.42;;;5.00;99.90;;;;;;5052119;28;20049;-83
2021/01/18 00:29:06;;;;;;;49.58;18.67;;;5.00;99.90;;;;;;5042798;28;20045;-80
2021/01/18 00:31:32;;;;;;;43.05;19.98;;;5.10;99.90;;;;;;5042788;28;20088;-81
2021/01/18 00:34:00;;;;;;;42.22;19.60;;;5.00;99.90;;;;;;5040549;28;20065;-81
2021/01/18 00:36:26;;;;;;;45.78;20.90;;;5.10;99.90;;;;;;5041163;28;20088;-82
2021/01/18 00:38:52;;;;;;;47.55;20.40;;;5.10;99.90;;;;;;5041568;28;20049;-82
2021/01/18 00:41:19;;;;;;;48.00;21.58;;;5.10;99.90;;;;;;5053592;28;20048;-81
2021/01/18 00:43:46;;;;;;;49.97;20.50;;;5.10;99.90;;;;;;5059013;28;20081;-81
2021/01/18 00:46:12;;;;;;;43.95;20.10;;;5.10;99.90;;;;;;5047239;28;20045;-82
2021/01/18 00:48:39;;;;;;;48.95;21.45;;;5.10;99.90;;;;;;5045093;28;20050;-85
2021/01/18 00:51:06;;;;;;;45.88;21.30;;;5.10;99.90;;;;;;5042458;28;20517;-82
2021/01/18 00:53:32;;;;;;;42.40;23.92;;;5.10;99.90;;;;;;5044662;28;20045;-82
2021/01/18 00:55:59;;;;;;;49.00;20.73;;;5.00;99.90;;;;;;5049287;28;20052;-82
2021/01/18 00:58:25;;;;;;;46.17;22.75;;;5.00;99.90;;;;;;5046969;28;20054;-81
2021/01/18 01:00:52;;;;;;;47.17;18.60;;;5.00;99.90;;;;;;5047283;28;20049;-81
2021/01/18 01:03:18;;;;;;;47.95;20.60;;;5.00;99.90;;;;;;5048809;28;20049;-80
2021/01/18 01:05:45;;;;;;;41.22;19.10;;;5.00;99.90;;;;;;5046980;28;20427;-80
2021/01/18 01:08:11;;;;;;;44.40;21.02;;;5.00;99.90;;;;;;5044447;28;20052;-81
2021/01/18 01:10:38;;;;;;;45.03;20.02;;;5.00;99.90;;;;;;5048749;28;20068;-81
2021/01/18 01:13:07;;;;;;;40.10;19.83;;;5.00;99.90;;;;;;5046466;28;20049;-81
2021/01/18 01:15:34;;;;;;;39.58;19.73;;;5.00;99.90;;;;;;5044194;28;20060;-80
2021/01/18 01:18:01;;;;;;;45.00;19.67;;;5.00;99.90;;;;;;5050469;28;20080;-82
2021/01/18 01:20:28;;;;;;;47.03;20.63;;;5.00;99.90;;;;;;5052270;28;20069;-82
2021/01/18 01:22:55;;;;;;;44.72;19.50;;;5.00;99.90;;;;;;5054112;28;20042;-81
2021/01/18 01:25:22;;;;;;;43.45;20.00;;;5.00;99.90;;;;;;5053165;28;20049;-83
2021/01/18 01:27:49;;;;;;;40.33;20.38;;;5.00;99.90;;;;;;5050023;28;20038;-84
2021/01/18 01:30:18;;;;;;;45.78;21.17;;;5.00;99.90;;;;;;5048414;28;20049;-84
2021/01/18 01:32:47;;;;;;;47.50;22.55;;;5.00;99.90;;;;;;5042074;28;20123;-84
2021/01/18 01:35:16;;;;;;;52.25;24.35;;;5.00;99.90;;;;;;5040217;28;20576;-83
2021/01/18 01:37:42;;;;;;;55.30;23.83;;;5.10;99.90;;;;;;5037923;28;20050;-83
2021/01/18 01:40:11;;;;;;;54.97;25.52;;;5.10;99.90;;;;;;5039425;28;20083;-83
2021/01/18 01:42:38;;;;;;;58.40;25.90;;;5.10;99.90;;;;;;5041297;28;20124;-84
2021/01/18 01:45:06;;;;;;;51.00;25.42;;;5.00;99.90;;;;;;5041713;28;20501;-83
2021/01/18 01:47:37;;;;;;;49.00;24.95;;;5.00;99.90;;;;;;5040026;28;20081;-83
2021/01/18 01:50:06;;;;;;;48.08;22.17;;;5.00;99.90;;;;;;5043273;28;20399;-82
2021/01/18 01:52:35;;;;;;;44.88;22.48;;;5.00;99.90;;;;;;5043407;28;20100;-82
2021/01/18 01:55:07;;;;;;;41.00;20.10;;;4.90;99.90;;;;;;5046598;28;20054;-82
2021/01/18 01:57:35;;;;;;;44.00;21.55;;;4.90;99.90;;;;;;5048748;28;20053;-82
2021/01/18 02:00:03;;;;;;;36.00;18.85;;;4.90;99.90;;;;;;5048534;28;20505;-81
2021/01/18 02:02:30;;;;;;;41.15;19.58;;;5.00;99.90;;;;;;5043279;28;20068;-83
2021/01/18 02:04:56;;;;;;;39.22;19.40;;;5.00;99.90;;;;;;5040225;28;20125;-82
2021/01/18 02:07:25;;;;;;;40.00;17.95;;;4.90;99.90;;;;;;5037534;28;20052;-82
2021/01/18 02:09:54;;;;;;;31.30;17.85;;;4.90;99.90;;;;;;5039002;28;20080;-82
2021/01/18 02:12:21;;;;;;;38.72;17.85;;;4.90;99.90;;;;;;5051906;28;20076;-82
2021/01/18 02:14:59;;;;;;;37.42;18.65;;;4.80;99.90;;;;;;5053493;28;20049;-82
2021/01/18 02:17:35;;;;;;;40.83;17.45;;;4.80;99.90;;;;;;5054876;28;20041;-82
2021/01/18 02:20:37;;;;;;;38.38;18.15;;;4.90;99.90;;;;;;5050629;28;20132;-82
2021/01/18 02:23:40;;;;;;;32.15;16.75;;;4.90;99.90;;;;;;5026273;28;20045;-82
2021/01/18 02:26:11;;;;;;;34.70;16.95;;;4.90;99.90;;;;;;5049733;28;20049;-82
2021/01/18 02:28:58;;;;;;;34.22;17.35;;;4.80;99.90;;;;;;5049749;28;20049;-82
2021/01/18 02:35:12;;;;;;;27.48;14.18;;;4.90;99.90;;;;;;5032357;28;20059;-83
2021/01/18 02:38:09;;;;;;;29.40;14.25;;;4.90;99.90;;;;;;5045992;28;20091;-83
2021/01/18 02:40:46;;;;;;;23.90;13.55;;;4.80;99.90;;;;;;5049062;28;20065;-83
2021/01/18 02:43:16;;;;;;;23.60;12.52;;;4.80;99.90;;;;;;5050457;28;20052;-82
2021/01/18 02:45:43;;;;;;;29.77;13.13;;;4.80;99.90;;;;;;5050207;28;20052;-82
2021/01/18 02:48:11;;;;;;;27.65;12.57;;;4.80;99.90;;;;;;5049760;28;20049;-81
2021/01/18 02:50:39;;;;;;;26.08;11.77;;;4.80;99.90;;;;;;5049240;28;20049;-81
2021/01/18 02:53:06;;;;;;;27.95;12.32;;;4.80;99.90;;;;;;5048064;28;20045;-81
2021/01/18 02:55:33;;;;;;;26.67;11.68;;;4.90;99.90;;;;;;5046908;28;20049;-81
2021/01/18 02:58:03;;;;;;;21.83;11.40;;;4.90;99.90;;;;;;5045157;28;20045;-81
2021/01/18 03:00:36;;;;;;;24.15;11.50;;;4.70;99.90;;;;;;5043690;28;20104;-82
2021/01/18 03:03:10;;;;;;;23.90;13.00;;;4.80;99.90;;;;;;5041193;28;20041;-82
2021/01/18 03:05:48;;;;;;;28.80;13.90;;;4.80;99.90;;;;;;5039662;28;20077;-81
2021/01/18 03:08:25;;;;;;;27.55;14.02;;;4.70;99.90;;;;;;5045220;28;20119;-82
2021/01/18 03:11:01;;;;;;;27.02;15.13;;;4.80;99.90;;;;;;5046403;28;20057;-82
2021/01/18 03:13:32;;;;;;;29.60;14.90;;;4.80;99.90;;;;;;5046083;28;20069;-82
2021/01/18 03:16:03;;;;;;;36.10;16.25;;;4.80;99.90;;;;;;5044665;28;20109;-86
2021/01/18 03:18:33;;;;;;;30.65;15.90;;;4.80;99.90;;;;;;5045326;28;20054;-86
2021/01/18 03:21:00;;;;;;;35.50;17.58;;;4.90;99.90;;;;;;5051270;28;20046;-86
2021/01/18 03:23:28;;;;;;;32.08;17.48;;;4.90;99.90;;;;;;5051124;28;20076;-86
2021/01/18 03:25:56;;;;;;;31.10;16.70;;;4.90;99.90;;;;;;5050890;28;20061;-85
2021/01/18 03:28:23;;;;;;;35.00;17.90;;;4.80;99.90;;;;;;5044241;28;20053;-85
2021/01/18 03:30:51;;;;;;;25.63;15.70;;;4.80;99.90;;;;;;5044970;28;20052;-85
2021/01/18 03:33:18;;;;;;;27.55;15.38;;;4.80;99.90;;;;;;5046258;28;20061;-86
2021/01/18 03:35:45;;;;;;;40.15;16.02;;;4.80;99.90;;;;;;5045284;28;20065;-85
2021/01/18 03:38:11;;;;;;;32.25;16.73;;;4.80;99.90;;;;;;5042317;28;20077;-85
2021/01/18 03:40:39;;;;;;;31.60;16.63;;;4.90;99.90;;;;;;5044131;28;20103;-84
2021/01/18 03:43:07;;;;;;;27.60;15.73;;;4.90;99.90;;;;;;5042651;28;20056;-84
2021/01/18 03:45:36;;;;;;;35.00;17.27;;;4.90;99.90;;;;;;5041150;28;20084;-84
2021/01/18 03:48:03;;;;;;;36.47;16.05;;;4.90;99.90;;;;;;5040163;28;20139;-85
2021/01/18 03:50:29;;;;;;;35.88;15.85;;;4.90;99.90;;;;;;5039800;28;20045;-85
2021/01/18 03:52:56;;;;;;;28.50;15.70;;;5.00;99.90;;;;;;5040420;28;20079;-85
2021/01/18 03:55:22;;;;;;;34.20;16.05;;;5.10;99.90;;;;;;5040591;28;20128;-83
2021/01/18 03:57:52;;;;;;;32.03;16.13;;;5.10;99.90;;;;;;5042786;28;20049;-83
2021/01/18 04:00:21;;;;;;;37.15;17.20;;;5.20;99.90;;;;;;5042440;28;20509;-83
2021/01/18 04:02:48;;;;;;;32.75;16.30;;;5.20;99.90;;;;;;5043568;28;20537;-84
2021/01/18 04:05:15;;;;;;;35.97;16.83;;;5.20;99.90;;;;;;5045969;28;20049;-83
2021/01/18 04:07:42;;;;;;;28.42;15.60;;;5.20;99.90;;;;;;5045627;28;20056;-83
2021/01/18 04:10:10;;;;;;;29.35;15.23;;;5.20;99.90;;;;;;5047957;28;20046;-82
2021/01/18 04:12:39;;;;;;;30.63;16.45;;;5.10;99.90;;;;;;5046694;28;20049;-85
2021/01/18 04:15:08;;;;;;;32.53;16.67;;;5.10;99.90;;;;;;5043606;28;20053;-85
2021/01/18 04:17:35;;;;;;;35.78;15.95;;;5.10;99.90;;;;;;5043968;28;20401;-85
2021/01/18 04:20:01;;;;;;;36.40;15.68;;;5.10;99.90;;;;;;5043423;28;20374;-85
2021/01/18 04:22:28;;;;;;;35.42;16.58;;;5.00;99.90;;;;;;5043016;28;20093;-85
2021/01/18 04:24:54;;;;;;;32.72;16.75;;;5.00;99.90;;;;;;5043064;28;20055;-86
2021/01/18 04:27:21;;;;;;;34.88;17.13;;;5.00;99.90;;;;;;5042995;28;20073;-85
2021/01/18 04:29:47;;;;;;;32.38;16.60;;;4.90;99.90;;;;;;5042050;28;20084;-85
2021/01/18 04:32:14;;;;;;;39.88;18.40;;;4.90;99.90;;;;;;5042376;28;20046;-84
2021/01/18 04:34:41;;;;;;;38.22;18.95;;;4.90;99.90;;;;;;5042018;28;20045;-85
2021/01/18 04:37:07;;;;;;;37.10;17.85;;;5.00;99.90;;;;;;5039915;28;20076;-85
2021/01/18 04:39:33;;;;;;;34.60;18.77;;;5.00;99.90;;;;;;5036315;28;20054;-84
2021/01/18 04:42:00;;;;;;;30.08;17.52;;;4.90;99.90;;;;;;5040936;28;20096;-85
2021/01/18 04:44:28;;;;;;;35.05;17.27;;;5.00;99.90;;;;;;5040114;28;20088;-83
2021/01/18 04:46:56;;;;;;;34.47;18.50;;;5.00;99.90;;;;;;5040651;28;20072;-85
2021/01/18 04:49:24;;;;;;;35.88;18.40;;;5.00;99.90;;;;;;5042096;28;20084;-84
2021/01/18 04:51:52;;;;;;;34.25;18.55;;;5.00;99.90;;;;;;5042450;28;20080;-86
2021/01/18 04:54:20;;;;;;;39.63;18.88;;;5.00;99.90;;;;;;5042504;28;20069;-83
2021/01/18 04:57:12;;;;;;;34.33;19.70;;;4.90;99.90;;;;;;5041411;28;20073;-84
2021/01/18 04:59:41;;;;;;;38.72;19.83;;;4.80;99.90;;;;;;5041478;28;20106;-85
2021/01/18 05:02:09;;;;;;;38.97;19.48;;;4.90;99.90;;;;;;5041516;28;20430;-84
2021/01/18 05:04:42;;;;;;;36.67;18.42;;;4.90;99.90;;;;;;5041777;28;20045;-85
2021/01/18 05:07:51;;;;;;;39.08;18.17;;;4.90;99.90;;;;;;5041736;28;20070;-85
2021/01/18 05:10:27;;;;;;;38.38;17.73;;;4.90;99.90;;;;;;5019454;28;20034;-83
2021/01/18 05:13:00;;;;;;;37.20;17.38;;;4.90;99.90;;;;;;5043923;28;20040;-83
2021/01/18 05:15:27;;;;;;;31.77;16.35;;;5.00;99.90;;;;;;5041230;28;20088;-83
2021/01/18 05:18:05;;;;;;;33.22;16.50;;;4.90;99.90;;;;;;5039975;28;20172;-84
2021/01/18 05:20:33;;;;;;;36.55;16.23;;;5.00;99.90;;;;;;5040163;28;20073;-85
2021/01/18 05:23:07;;;;;;;40.83;16.75;;;4.90;99.90;;;;;;5040671;28;20532;-84
2021/01/18 05:25:34;;;;;;;36.72;16.67;;;4.90;99.90;;;;;;5038842;28;20053;-81
2021/01/18 05:28:05;;;;;;;37.00;18.60;;;4.90;99.90;;;;;;5039246;28;20049;-83
2021/01/18 05:30:34;;;;;;;43.50;16.92;;;4.80;99.90;;;;;;5036976;28;20072;-83
2021/01/18 05:33:06;;;;;;;33.97;16.55;;;4.80;99.90;;;;;;5037694;28;20096;-84
2021/01/18 05:35:34;;;;;;;;;;;4.80;99.90;;;;;;5038848;28;20088;-82
2021/01/18 05:38:03;;;;;;;35.95;18.45;;;4.80;99.90;;;;;;5067612;22;20304;-78
2021/01/18 05:40:34;;;;;;;42.38;17.45;;;4.80;99.90;;;;;;5043665;28;20057;-79
2021/01/18 05:43:02;;;;;;;37.53;16.75;;;4.80;99.90;;;;;;5054606;28;20105;-79
2021/01/18 05:45:30;;;;;;;39.78;18.17;;;4.80;99.90;;;;;;5060291;28;20060;-79
2021/01/18 05:47:58;;;;;;;34.88;16.67;;;4.80;99.90;;;;;;5059646;28;20049;-79
2021/01/18 05:50:26;;;;;;;38.90;17.33;;;4.90;99.90;;;;;;5063993;28;20072;-79
2021/01/18 05:52:53;;;;;;;41.92;17.75;;;4.90;99.90;;;;;;5064597;28;20508;-79
2021/01/18 05:55:21;;;;;;;36.67;16.42;;;4.90;99.90;;;;;;5060400;28;20288;-79
2021/01/18 05:57:49;;;;;;;35.92;16.50;;;4.90;99.90;;;;;;5056913;28;20056;-80
2021/01/18 06:00:27;;;;;;;36.45;17.33;;;4.90;99.90;;;;;;5056796;28;20088;-80
2021/01/18 06:02:53;;;;;;;33.70;17.17;;;4.90;99.90;;;;;;5056681;28;20128;-80
2021/01/18 06:05:30;;;;;;;35.90;17.17;;;4.90;99.90;;;;;;5057488;28;20080;-80
2021/01/18 06:08:09;;;;;;;36.45;17.65;;;4.90;99.90;;;;;;5056440;28;20444;-80
2021/01/18 06:10:36;;;;;;;40.55;21.70;;;4.90;99.90;;;;;;5057649;28;20117;-79
2021/01/18 06:13:03;;;;;;;36.08;17.23;;;4.90;99.90;;;;;;5066293;28;20055;-79
2021/01/18 06:15:30;;;;;;;36.47;17.05;;;4.90;99.90;;;;;;5059070;28;20052;-79
2021/01/18 06:17:58;;;;;;;32.97;17.10;;;5.00;99.90;;;;;;5057474;28;20107;-81
2021/01/18 06:20:26;;;;;;;40.83;18.85;;;4.90;99.90;;;;;;5063258;28;20071;-80
2021/01/18 06:22:54;;;;;;;36.92;17.85;;;4.90;99.90;;;;;;5066750;28;20084;-80
2021/01/18 06:25:23;;;;;;;35.30;17.08;;;4.90;99.90;;;;;;5063669;28;20045;-78
2021/01/18 06:27:51;;;;;;;37.72;17.95;;;4.90;99.90;;;;;;5059145;28;20056;-79
2021/01/18 06:30:25;;;;;;;34.95;17.20;;;4.90;99.90;;;;;;5064597;28;20045;-80
2021/01/18 06:32:53;;;;;;;40.22;18.42;;;4.90;99.90;;;;;;5057085;28;20486;-80
2021/01/18 06:35:28;;;;;;;38.50;17.83;;;4.90;99.90;;;;;;5056104;28;20312;-79
2021/01/18 06:38:00;;;;;;;45.65;19.27;;;4.80;99.90;;;;;;5056650;28;20405;-80
2021/01/18 06:40:29;;;;;;;38.53;17.42;;;4.90;99.90;;;;;;5056617;28;20052;-80
2021/01/18 06:42:57;;;;;;;31.95;17.80;;;4.80;99.90;;;;;;5053500;28;20053;-79
2021/01/18 06:45:31;;;;;;;31.70;17.45;;;4.80;99.90;;;;;;5057818;28;20069;-79
2021/01/18 06:47:58;;;;;;;46.10;18.10;;;4.80;99.90;;;;;;5055142;28;20059;-78
2021/01/18 06:50:28;;;;;;;37.05;19.45;;;4.80;99.90;;;;;;5058317;28;20052;-81
2021/01/18 06:52:55;;;;;;;45.15;20.20;;;4.90;99.90;;;;;;5061160;28;20052;-80
2021/01/18 06:55:26;;;;;;;50.35;20.50;;;4.90;99.90;;;;;;5062583;28;20053;-82
2021/01/18 06:58:32;;;;;;;37.47;19.73;;;4.90;99.90;;;;;;5060953;28;20052;-80
2021/01/18 07:01:00;;;;;;;42.65;23.05;;;5.00;99.90;;;;;;5061103;28;20138;-79
2021/01/18 07:03:39;;;;;;;44.80;21.63;;;4.90;99.90;;;;;;5059695;28;20080;-78
2021/01/18 07:06:31;;;;;;;45.65;21.98;;;5.00;99.90;;;;;;5057499;28;20477;-79
2021/01/18 07:08:59;;;;;;;47.05;22.15;;;5.00;99.90;;;;;;5056911;28;20080;-79
2021/01/18 07:11:27;;;;;;;44.42;23.90;;;4.90;99.90;;;;;;5056454;28;20056;-78
2021/01/18 07:13:54;;;;;;;54.47;24.42;;;4.90;99.90;;;;;;5059281;28;20065;-80
2021/01/18 07:16:23;;;;;;;47.03;26.33;;;5.00;99.90;;;;;;5060213;28;20128;-80
2021/01/18 07:19:00;;;;;;;47.33;24.60;;;5.00;99.90;;;;;;5026833;28;20104;-80
2021/01/18 07:21:30;;;;;;;46.30;24.13;;;5.00;99.90;;;;;;5010063;28;20321;-80
2021/01/18 07:23:58;;;;;;;45.53;25.65;;;5.00;99.90;;;;;;5014344;28;20041;-80
2021/01/18 07:26:53;;;;;;;48.83;25.13;;;5.00;99.90;;;;;;5018206;28;20313;-81
2021/01/18 07:29:23;;;;;;;49.58;23.95;;;5.00;99.90;;;;;;5017734;28;20085;-80
2021/01/18 07:31:52;;;;;;;50.15;23.33;;;5.00;99.90;;;;;;5020495;28;20081;-80
2021/01/18 07:34:21;;;;;;;43.97;22.40;;;5.00;99.90;;;;;;5023329;28;20046;-81
2021/01/18 07:36:49;;;;;;;55.35;25.20;;;5.00;99.90;;;;;;5022842;28;20054;-79
2021/01/18 07:39:32;;;;;;;46.63;23.63;;;5.00;99.90;;;;;;5023288;28;20068;-81
2021/01/18 07:42:00;;;;;;;48.15;24.42;;;5.00;99.90;;;;;;5021451;28;20157;-80
2021/01/18 07:44:40;;;;;;;54.40;26.77;;;4.90;99.90;;;;;;5021692;28;20128;-80
2021/01/18 07:47:07;;;;;;;52.35;24.38;;;4.90;99.90;;;;;;5020081;28;20054;-79
2021/01/18 07:49:42;;;;;;;45.58;24.77;;;4.90;99.90;;;;;;5020884;28;20069;-81
2021/01/18 07:52:14;;;;;;;52.80;23.98;;;5.00;99.90;;;;;;5022450;28;20088;-80
2021/01/18 07:54:40;;;;;;;48.97;22.67;;;5.00;99.90;;;;;;5020412;28;20277;-80
2021/01/18 07:57:35;;;;;;;43.95;22.17;;;5.00;99.90;;;;;;5021219;28;20054;-80
2021/01/18 08:00:33;;;;;;;50.60;22.98;;;5.00;99.90;;;;;;5008528;28;20054;-81
2021/01/18 08:03:29;;;;;;;55.08;21.90;;;5.00;99.90;;;;;;5021990;28;20049;-79
2021/01/18 08:06:12;;;;;;;49.30;21.30;;;5.00;99.90;;;;;;5022936;28;20060;-81
2021/01/18 08:08:38;;;;;;;;;;;5.10;99.90;;;;;;5023898;28;20105;-81
2021/01/18 08:11:08;;;;;;;46.97;19.67;;;5.10;99.90;;;;;;5022628;28;20301;-79
2021/01/18 08:13:46;;;;;;;40.90;20.55;;;5.00;99.90;;;;;;5024037;28;20164;-79
2021/01/18 08:16:19;;;;;;;45.03;20.90;;;5.00;99.90;;;;;;5024025;28;20042;-80
2021/01/18 08:19:01;;;;;;;35.05;19.38;;;5.00;99.90;;;;;;5023943;28;20054;-80
2021/01/18 08:21:58;;;;;;;48.25;20.60;;;5.00;99.90;;;;;;5022665;28;20108;-79
2021/01/18 08:24:51;;;;;;;44.20;20.35;;;5.00;99.90;;;;;;5022597;28;20106;-79
2021/01/18 08:27:35;;;;;;;44.80;21.02;;;5.00;99.90;;;;;;5029182;28;20128;-80
2021/01/18 08:30:16;;;;;;;37.83;18.63;;;5.10;99.90;;;;;;5031071;28;20057;-79
2021/01/18 08:32:52;;;;;;;50.03;20.88;;;5.20;99.90;;;;;;5033432;28;20050;-78
2021/01/18 08:35:28;;;;;;;44.10;20.05;;;5.20;99.90;;;;;;5036757;28;20182;-80
2021/01/18 08:37:58;;;;;;;47.15;20.27;;;5.20;99.90;;;;;;5032936;28;20042;-80
2021/01/18 08:40:36;;;;;;;51.42;21.08;;;5.30;99.90;;;;;;5024802;28;20050;-80
2021/01/18 08:43:03;;;;;;;40.97;18.90;;;5.40;99.90;;;;;;5024958;28;20244;-81
2021/01/18 08:45:31;;;;;;;42.42;20.63;;;5.40;99.90;;;;;;5023728;28;20058;-80
2021/01/18 08:48:00;;;;;;;45.80;19.23;;;5.50;99.90;;;;;;5024856;28;20093;-81
2021/01/18 08:50:27;;;;;;;39.30;18.10;;;5.50;99.90;;;;;;5034066;28;20050;-79
2021/01/18 08:52:56;;;;;;;41.92;20.05;;;5.50;99.90;;;;;;5026086;28;20050;-80
2021/01/18 08:55:42;;;;;;;43.30;19.45;;;5.60;99.90;;;;;;5021144;28;20073;-80
2021/01/18 08:58:09;;;;;;;49.38;22.50;;;5.60;99.90;;;;;;5021074;28;20046;-80
2021/01/18 09:00:42;;;;;;;47.05;22.23;;;5.70;99.90;;;;;;5020389;28;20054;-81
2021/01/18 09:03:11;;;;;;;53.83;21.60;;;5.70;99.90;;;;;;5019764;28;20042;-81
2021/01/18 09:05:38;;;;;;;36.50;20.25;;;5.70;99.90;;;;;;5018270;28;20057;-81
2021/01/18 09:08:07;;;;;;;44.25;21.27;;;5.70;99.90;;;;;;5019921;28;20046;-81
2021/01/18 09:10:34;;;;;;;48.60;22.67;;;5.70;99.90;;;;;;5025603;28;20085;-80
2021/01/18 09:13:05;;;;;;;41.83;21.35;;;5.70;99.90;;;;;;5039035;28;20137;-80
2021/01/18 09:15:33;;;;;;;44.33;20.73;;;5.70;99.90;;;;;;5047359;28;20437;-79
2021/01/18 09:18:18;;;;;;;43.30;19.88;;;5.70;99.90;;;;;;5038981;28;20071;-79
2021/01/18 09:20:45;;;;;;;51.55;21.58;;;5.70;99.90;;;;;;5041088;28;20064;-80
2021/01/18 09:23:13;;;;;;;44.92;20.55;;;5.80;99.90;;;;;;5039912;28;20048;-80
2021/01/18 09:25:40;;;;;;;49.35;21.55;;;5.90;99.90;;;;;;5040306;28;20123;-79
2021/01/18 09:28:09;;;;;;;42.22;20.95;;;6.00;99.90;;;;;;5038967;28;20057;-80
2021/01/18 09:30:37;;;;;;;42.17;19.02;;;6.00;99.90;;;;;;5040974;28;20064;-80
2021/01/18 09:33:05;;;;;;;39.35;19.42;;;6.10;99.90;;;;;;5040956;28;20510;-81
2021/01/18 09:35:34;;;;;;;47.22;21.25;;;6.10;99.90;;;;;;5042055;28;20060;-78
2021/01/18 09:38:01;;;;;;;38.72;20.25;;;6.10;99.90;;;;;;5041657;28;20053;-80
2021/01/18 09:40:27;;;;;;;37.90;19.50;;;6.10;99.90;;;;;;5040327;28;20084;-80
2021/01/18 09:42:56;;;;;;;39.83;19.88;;;6.20;99.90;;;;;;5039746;28;20570;-80
2021/01/18 09:45:24;;;;;;;45.78;20.38;;;6.20;99.90;;;;;;5039055;28;20045;-80
2021/01/18 09:47:52;;;;;;;42.28;20.25;;;6.10;99.90;;;;;;5039028;28;20091;-80
2021/01/18 09:50:20;;;;;;;41.97;19.52;;;6.10;99.90;;;;;;5040211;28;20176;-80
2021/01/18 09:52:49;;;;;;;38.50;18.70;;;6.10;99.90;;;;;;5036585;28;20084;-80
2021/01/18 09:55:20;;;;;;;38.47;17.10;;;6.20;99.90;;;;;;5040405;28;20111;-80
2021/01/18 09:57:55;;;;;;;33.53;18.20;;;6.20;99.90;;;;;;5040800;28;20108;-80
2021/01/18 10:00:22;;;;;;;36.40;16.50;;;6.20;99.90;;;;;;5039785;28;20080;-80
2021/01/18 10:02:51;;;;;;;41.22;17.60;;;6.20;99.90;;;;;;5039700;28;20049;-80
2021/01/18 10:05:38;;;;;;;38.55;17.25;;;6.20;99.90;;;;;;5040239;28;20067;-81
2021/01/18 10:08:12;;;;;;;40.72;17.02;;;6.30;99.90;;;;;;5040601;28;20485;-80
2021/01/18 10:10:45;;;;;;;34.00;16.60;;;6.20;99.90;;;;;;5040361;28;20567;-80
2021/01/18 10:13:17;;;;;;;39.78;15.52;;;6.20;99.90;;;;;;5040730;28;20056;-80
2021/01/18 10:15:44;;;;;;;34.17;15.27;;;6.10;99.90;;;;;;5040629;28;20049;-81
2021/01/18 10:18:32;;;;;;;29.10;15.60;;;6.20;99.90;;;;;;5040401;28;20092;-80
2021/01/18 10:20:59;;;;;;;33.65;14.93;;;6.10;99.90;;;;;;5041637;28;20055;-80
2021/01/18 10:23:31;;;;;;;32.65;14.05;;;6.10;99.90;;;;;;5021553;28;20053;-80
2021/01/18 10:26:15;;;;;;;27.10;12.68;;;6.10;99.90;;;;;;5039628;28;20349;-80
2021/01/18 10:28:51;;;;;;;31.58;14.10;;;6.20;99.90;;;;;;5030688;28;20049;-79
2021/01/18 10:31:19;;;;;;;30.90;13.38;;;6.20;99.90;;;;;;5028226;28;20057;-80
2021/01/18 10:33:45;;;;;;;25.45;11.82;;;6.30;99.90;;;;;;5029465;28;20283;-80
2021/01/18 10:36:31;;;;;;;27.02;11.82;;;6.40;99.90;;;;;;5031299;28;20069;-80
2021/01/18 10:38:58;;;;;;;27.92;11.85;;;6.40;99.90;;;;;;5029650;28;20045;-80
2021/01/18 10:41:26;;;;;;;30.13;11.07;;;6.50;99.90;;;;;;5029479;28;20073;-79
2021/01/18 10:43:53;;;;;;;25.20;11.40;;;6.40;99.90;;;;;;5029196;28;20121;-80
2021/01/18 10:46:19;;;;;;;21.85;10.10;;;6.40;99.90;;;;;;5033675;28;20506;-80
2021/01/18 10:48:55;;;;;;;24.45;10.25;;;6.40;99.90;;;;;;5030819;28;20080;-81
2021/01/18 10:51:25;;;;;;;23.20;10.52;;;6.30;99.90;;;;;;5028412;28;20502;-80
2021/01/18 10:53:56;;;;;;;26.40;10.55;;;6.20;99.90;;;;;;5033186;28;20037;-79
2021/01/18 10:56:31;;;;;;;23.85;10.25;;;6.20;99.90;;;;;;5016693;28;20050;-79
2021/01/18 10:58:58;;;;;;;28.80;10.40;;;6.20;99.90;;;;;;5025353;28;20045;-79
2021/01/18 11:01:25;;;;;;;31.40;9.77;;;6.30;99.90;;;;;;5027537;28;20417;-79
2021/01/18 11:03:52;;;;;;;18.77;9.23;;;6.30;99.90;;;;;;5023839;28;20069;-79
2021/01/18 11:06:21;;;;;;;24.98;10.63;;;6.30;99.90;;;;;;5023274;28;20046;-80
2021/01/18 11:08:52;;;;;;;15.57;8.85;;;6.40;99.90;;;;;;5027312;28;20641;-80
2021/01/18 11:11:21;;;;;;;27.20;8.88;;;6.40;99.90;;;;;;5035477;28;20054;-79
2021/01/18 11:13:48;;;;;;;19.70;9.23;;;6.50;99.90;;;;;;5030928;28;20131;-79
2021/01/18 11:16:16;;;;;;;20.58;8.70;;;6.50;99.90;;;;;;5026998;28;20496;-80
2021/01/18 11:18:44;;;;;;;21.88;7.85;;;6.50;99.90;;;;;;5028862;28;20073;-81
2021/01/18 11:21:11;;;;;;;23.10;8.80;;;6.50;99.90;;;;;;5032313;28;20080;-80
2021/01/18 11:23:37;;;;;;;20.20;8.27;;;6.50;99.90;;;;;;5030928;28;20056;-79
2021/01/18 11:26:05;;;;;;;24.85;9.13;;;6.50;99.90;;;;;;5029077;28;20077;-79
2021/01/18 11:28:31;;;;;;;22.30;8.30;;;6.50;99.90;;;;;;5023703;28;20054;-81
2021/01/18 11:31:00;;;;;;;24.08;7.78;;;6.50;99.90;;;;;;5025972;28;20129;-80
2021/01/18 11:33:26;;;;;;;20.95;7.72;;;6.60;99.90;;;;;;5027621;28;20088;-80
2021/01/18 11:35:53;;;;;;;20.65;8.30;;;6.60;99.90;;;;;;5023644;28;20153;-80
2021/01/18 11:38:19;;;;;;;30.13;11.30;;;6.70;99.90;;;;;;5054779;22;20136;-78
2021/01/18 11:40:46;;;;;;;19.52;7.40;;;6.70;99.90;;;;;;5047651;28;20114;-78
2021/01/18 11:43:13;;;;;;;16.67;7.28;;;6.70;99.90;;;;;;5056300;28;20509;-77
2021/01/18 11:45:39;;;;;;;20.15;8.30;;;6.80;99.90;;;;;;5055191;28;20103;-78
2021/01/18 11:48:07;;;;;;;22.58;7.63;;;6.80;99.90;;;;;;5053742;28;20053;-79
2021/01/18 11:50:34;;;;;;;16.15;7.35;;;6.80;99.90;;;;;;5036211;28;20133;-78
2021/01/18 11:53:00;;;;;;;17.67;6.80;;;6.90;99.90;;;;;;5035241;28;20488;-77
2021/01/18 11:55:27;;;;;;;20.40;8.27;;;6.90;99.90;;;;;;5035007;28;20096;-77
2021/01/18 11:57:54;;;;;;;20.70;8.00;;;7.00;99.90;;;;;;5034759;28;20132;-77
2021/01/18 12:00:22;;;;;;;19.90;7.22;;;7.00;99.90;;;;;;5033281;28;20053;-77
2021/01/18 12:02:52;;;;;;;17.95;6.28;;;7.10;99.90;;;;;;5015774;28;20132;-77
2021/01/18 12:05:22;;;;;;;19.42;6.70;;;7.10;99.90;;;;;;5016865;28;20046;-77
2021/01/18 12:07:48;;;;;;;20.08;6.78;;;7.10;99.90;;;;;;5033978;28;20166;-76
2021/01/18 12:10:15;;;;;;;19.77;7.03;;;7.20;99.90;;;;;;5034363;28;20553;-77
2021/01/18 12:12:42;;;;;;;21.02;6.07;;;7.20;99.90;;;;;;5021572;28;20096;-79
2021/01/18 12:15:09;;;;;;;20.05;6.25;;;7.30;99.90;;;;;;5028436;28;20129;-79
2021/01/18 12:17:37;;;;;;;17.38;6.00;;;7.40;99.90;;;;;;5035243;28;20115;-79
2021/01/18 12:20:04;;;;;;;19.17;6.35;;;7.50;99.90;;;;;;5035168;28;20124;-79
2021/01/18 12:22:32;;;;;;;15.90;5.10;;;7.50;99.90;;;;;;5022337;28;20124;-78
2021/01/18 12:24:58;;;;;;;13.95;5.70;;;7.60;99.90;;;;;;5031496;28;20128;-77
2021/01/18 12:27:24;;;;;;;15.02;5.88;;;7.60;99.90;;;;;;5017967;28;20077;-78
2021/01/18 12:29:51;;;;;;;14.00;5.10;;;7.70;99.90;;;;;;5029193;28;20487;-77
2021/01/18 12:32:17;;;;;;;12.10;5.60;;;7.70;99.90;;;;;;5021465;28;20176;-79
2021/01/18 12:34:44;;;;;;;11.95;5.43;;;7.70;99.90;;;;;;5020837;28;20107;-78
2021/01/18 12:37:10;;;;;;;20.45;5.97;;;7.70;99.90;;;;;;5028933;28;20064;-77
2021/01/18 12:39:37;;;;;;;16.58;5.35;;;7.60;99.90;;;;;;5015761;28;20133;-77
2021/01/18 12:42:05;;;;;;;18.10;5.68;;;7.60;99.90;;;;;;5027210;28;20057;-78
2021/01/18 12:44:31;;;;;;;17.77;5.32;;;7.60;99.90;;;;;;5019402;28;20048;-78
2021/01/18 12:46:59;;;;;;;13.85;5.80;;;7.60;99.90;;;;;;5015095;28;20136;-78
2021/01/18 12:49:25;;;;;;;15.40;5.38;;;7.60;99.90;;;;;;5027275;28;20132;-78
2021/01/18 12:51:52;;;;;;;18.15;6.43;;;7.60;99.90;;;;;;5023989;28;20129;-77
2021/01/18 12:54:19;;;;;;;15.43;6.30;;;7.60;99.90;;;;;;5030798;28;20608;-77
2021/01/18 12:56:46;;;;;;;16.90;5.68;;;7.70;99.90;;;;;;5031739;28;20132;-77
2021/01/18 12:59:13;;;;;;;15.77;5.38;;;7.80;99.90;;;;;;5031737;28;20597;-77